createdAt,value
2023-05-06T00:00:10.994Z,1830.00
2023-05-06T00:01:11.006Z,1831.00
2023-05-06T00:02:11.019Z,1836.00
2023-05-06T00:03:11.123Z,1825.00
2023-05-06T00:04:11.115Z,1828.00
2023-05-06T00:05:11.453Z,1831.00
2023-05-06T00:06:11.154Z,1823.00
2023-05-06T00:07:11.181Z,1828.00
2023-05-06T00:08:11.251Z,1818.00
2023-05-06T00:09:11.256Z,1833.00
2023-05-06T00:10:11.359Z,1816.00
2023-05-06T00:11:11.311Z,1821.00
2023-05-06T00:12:11.357Z,1818.00
2023-05-06T00:13:11.452Z,1814.00
2023-05-06T00:14:11.551Z,1818.00
2023-05-06T00:15:11.766Z,1817.00
2023-05-06T00:16:11.526Z,1823.00
2023-05-06T00:17:11.578Z,1816.00
2023-05-06T00:18:11.704Z,1806.00
2023-05-06T00:19:11.590Z,1815.00
2023-05-06T00:20:11.618Z,1811.00
2023-05-06T00:21:11.679Z,1803.00
2023-05-06T00:22:11.721Z,1809.00
2023-05-06T00:23:11.725Z,1804.00
2023-05-06T00:24:11.758Z,1804.00
2023-05-06T00:25:11.884Z,1804.00
2023-05-06T00:26:11.827Z,1786.00
2023-05-06T00:27:11.854Z,1801.00
2023-05-06T00:28:11.909Z,1801.00
2023-05-06T00:29:11.935Z,1791.00
2023-05-06T00:30:12.067Z,1795.00
2023-05-06T00:31:12.027Z,1782.00
2023-05-06T00:32:12.145Z,1797.00
2023-05-06T00:33:12.194Z,1788.00
2023-05-06T00:34:12.145Z,1783.00
2023-05-06T00:35:12.164Z,1793.00
2023-05-06T00:36:12.218Z,1796.00
2023-05-06T00:37:12.254Z,1780.00
2023-05-06T00:38:12.304Z,1778.00
2023-05-06T00:39:12.323Z,1782.00
2023-05-06T00:40:12.399Z,1792.00
2023-05-06T00:41:12.406Z,1781.00
2023-05-06T00:42:12.453Z,1786.00
2023-05-06T00:43:12.467Z,1796.00
2023-05-06T00:44:12.534Z,1781.00
2023-05-06T00:45:12.546Z,1773.00
2023-05-06T00:46:12.786Z,1778.00
2023-05-06T00:47:12.635Z,1781.00
2023-05-06T00:48:12.723Z,1774.00
2023-05-06T00:49:12.710Z,1778.00
2023-05-06T00:50:12.787Z,1775.00
2023-05-06T00:51:12.828Z,1760.00
2023-05-06T00:52:12.837Z,1767.00
2023-05-06T00:53:12.897Z,1769.00
2023-05-06T00:54:12.923Z,1764.00
2023-05-06T00:55:12.981Z,1760.00
2023-05-06T00:56:13.002Z,1759.00
2023-05-06T00:57:13.047Z,1763.00
2023-05-06T00:58:13.121Z,1770.00
2023-05-06T00:59:13.133Z,1760.00
2023-05-06T01:00:13.166Z,1763.00
2023-05-06T01:01:13.252Z,1764.00
2023-05-06T01:02:13.350Z,1748.00
2023-05-06T01:03:13.420Z,1754.00
2023-05-06T01:04:13.403Z,1752.00
2023-05-06T01:05:13.451Z,1747.00
2023-05-06T01:06:13.446Z,1764.00
2023-05-06T01:07:13.501Z,1754.00
2023-05-06T01:08:13.541Z,1753.00
2023-05-06T01:09:13.604Z,1745.00
2023-05-06T01:10:13.647Z,1746.00
2023-05-06T01:11:15.593Z,1750.00
2023-05-06T01:12:13.705Z,1751.00
2023-05-06T01:13:13.834Z,1747.00
2023-05-06T01:14:13.799Z,1743.00
2023-05-06T01:15:13.827Z,1732.00
2023-05-06T01:16:13.883Z,1744.00
2023-05-06T01:17:14.080Z,1749.00
2023-05-06T01:18:14.032Z,1737.00
2023-05-06T01:19:14.009Z,1729.00
2023-05-06T01:20:14.042Z,1741.00
2023-05-06T01:21:14.087Z,1731.00
2023-05-06T01:22:14.127Z,1735.00
2023-05-06T01:23:14.185Z,1730.00
2023-05-06T01:24:14.214Z,1729.00
2023-05-06T01:25:14.246Z,1728.00
2023-05-06T01:26:14.289Z,1730.00
2023-05-06T01:27:14.348Z,1718.00
2023-05-06T01:28:14.379Z,1734.00
2023-05-06T01:29:14.445Z,1731.00
2023-05-06T01:30:14.488Z,1718.00
2023-05-06T01:31:14.573Z,1723.00
2023-05-06T01:32:14.550Z,1730.00
2023-05-06T01:33:14.726Z,1713.00
2023-05-06T01:34:14.741Z,1725.00
2023-05-06T01:35:14.668Z,1727.00
2023-05-06T01:36:14.731Z,1716.00
2023-05-06T01:37:14.787Z,1718.00
2023-05-06T01:38:14.874Z,1716.00
2023-05-06T01:39:14.885Z,1705.00
2023-05-06T01:40:14.965Z,1717.00
2023-05-06T01:41:15.010Z,1711.00
2023-05-06T01:42:15.051Z,1710.00
2023-05-06T01:43:15.076Z,1712.00
2023-05-06T01:44:15.128Z,1701.00
2023-05-06T01:45:15.154Z,1699.00
2023-05-06T01:46:15.206Z,1708.00
2023-05-06T01:47:15.265Z,1706.00
2023-05-06T01:48:15.311Z,1720.00
2023-05-06T01:49:15.375Z,1700.00
2023-05-06T01:50:15.478Z,1707.00
2023-05-06T01:51:15.495Z,1686.00
2023-05-06T01:52:15.525Z,1698.00
2023-05-06T01:53:15.558Z,1703.00
2023-05-06T01:54:15.586Z,1690.00
2023-05-06T01:55:15.646Z,1685.00
2023-05-06T01:56:15.686Z,1695.00
2023-05-06T01:57:15.719Z,1685.00
2023-05-06T01:58:15.782Z,1689.00
2023-05-06T01:59:15.828Z,1690.00
2023-05-06T02:00:15.900Z,1689.00
2023-05-06T02:01:15.922Z,1691.00
2023-05-06T02:02:15.936Z,1690.00
2023-05-06T02:03:16.063Z,1697.00
2023-05-06T02:04:16.042Z,1685.00
2023-05-06T02:05:16.089Z,1669.00
2023-05-06T02:06:16.197Z,1691.00
2023-05-06T02:07:16.188Z,1684.00
2023-05-06T02:08:16.255Z,1674.00
2023-05-06T02:09:16.322Z,1682.00
2023-05-06T02:10:16.394Z,1687.00
2023-05-06T02:11:16.404Z,1689.00
2023-05-06T02:12:16.436Z,1672.00
2023-05-06T02:13:16.576Z,1679.00
2023-05-06T02:14:16.564Z,1667.00
2023-05-06T02:15:16.608Z,1664.00
2023-05-06T02:16:16.741Z,1681.00
2023-05-06T02:17:16.691Z,1659.00
2023-05-06T02:18:16.751Z,1662.00
2023-05-06T02:19:16.790Z,1671.00
2023-05-06T02:20:16.840Z,1668.00
2023-05-06T02:21:16.944Z,1663.00
2023-05-06T02:22:16.989Z,1666.00
2023-05-06T02:23:17.004Z,1654.00
2023-05-06T02:24:17.047Z,1646.00
2023-05-06T02:25:17.096Z,1660.00
2023-05-06T02:26:17.146Z,1651.00
2023-05-06T02:27:17.186Z,1663.00
2023-05-06T02:28:17.247Z,1659.00
2023-05-06T02:29:17.322Z,1656.00
2023-05-06T02:30:17.388Z,1644.00
2023-05-06T02:31:17.430Z,1646.00
2023-05-06T02:32:17.461Z,1659.00
2023-05-06T02:33:17.531Z,1658.00
2023-05-06T02:34:17.593Z,1652.00
2023-05-06T02:35:17.645Z,1652.00
2023-05-06T02:36:17.660Z,1636.00
2023-05-06T02:37:17.726Z,1644.00
2023-05-06T02:38:17.847Z,1639.00
2023-05-06T02:39:17.836Z,1645.00
2023-05-06T02:40:17.899Z,1625.00
2023-05-06T02:41:17.949Z,1647.00
2023-05-06T02:42:18.026Z,1644.00
2023-05-06T02:43:18.062Z,1642.00
2023-05-06T02:44:18.102Z,1638.00
2023-05-06T02:45:18.175Z,1632.00
2023-05-06T02:46:18.325Z,1633.00
2023-05-06T02:47:18.301Z,1640.00
2023-05-06T02:48:18.334Z,1631.00
2023-05-06T02:49:18.408Z,1626.00
2023-05-06T02:50:18.461Z,1633.00
2023-05-06T02:51:18.502Z,1623.00
2023-05-06T02:52:18.544Z,1622.00
2023-05-06T02:53:18.580Z,1613.00
2023-05-06T02:54:18.749Z,1633.00
2023-05-06T02:55:18.699Z,1622.00
2023-05-06T02:56:18.756Z,1625.00
2023-05-06T02:57:18.811Z,1631.00
2023-05-06T02:58:18.875Z,1616.00
2023-05-06T02:59:18.922Z,1613.00
2023-05-06T03:00:19.001Z,1618.00
2023-05-06T03:01:19.050Z,1618.00
2023-05-06T03:02:19.098Z,1623.00
2023-05-06T03:03:19.162Z,1616.00
2023-05-06T03:04:19.193Z,1614.00
2023-05-06T03:05:19.230Z,1608.00
2023-05-06T03:06:19.281Z,1602.00
2023-05-06T03:07:19.342Z,1612.00
2023-05-06T03:08:19.401Z,1616.00
2023-05-06T03:09:19.482Z,1598.00
2023-05-06T03:10:19.496Z,1591.00
2023-05-06T03:11:19.579Z,1588.00
2023-05-06T03:12:19.601Z,1600.00
2023-05-06T03:13:19.686Z,1590.00
2023-05-06T03:14:19.728Z,1601.00
2023-05-06T03:15:19.763Z,1596.00
2023-05-06T03:16:19.858Z,1603.00
2023-05-06T03:17:19.864Z,1602.00
2023-05-06T03:18:19.927Z,1595.00
2023-05-06T03:19:19.962Z,1590.00
2023-05-06T03:20:20.041Z,1590.00
2023-05-06T03:21:20.099Z,1595.00
2023-05-06T03:22:20.131Z,1597.00
2023-05-06T03:23:20.188Z,1598.00
2023-05-06T03:24:20.226Z,1606.00
2023-05-06T03:25:20.291Z,1582.00
2023-05-06T03:26:20.456Z,1583.00
2023-05-06T03:27:20.383Z,1599.00
2023-05-06T03:28:20.440Z,1588.00
2023-05-06T03:29:20.496Z,1595.00
2023-05-06T03:30:20.620Z,1592.00
2023-05-06T03:31:20.645Z,1578.00
2023-05-06T03:32:20.678Z,1589.00
2023-05-06T03:33:20.728Z,1581.00
2023-05-06T03:34:20.829Z,1582.00
2023-05-06T03:35:20.844Z,1576.00
2023-05-06T03:36:20.894Z,1566.00
2023-05-06T03:37:20.976Z,1575.00
2023-05-06T03:38:21.001Z,1577.00
2023-05-06T03:39:21.064Z,1569.00
2023-05-06T03:40:21.070Z,1574.00
2023-05-06T03:41:21.147Z,1562.00
2023-05-06T03:42:21.292Z,1553.00
2023-05-06T03:43:21.227Z,1562.00
2023-05-06T03:44:21.336Z,1562.00
2023-05-06T03:45:21.313Z,1563.00
2023-05-06T03:46:21.425Z,1568.00
2023-05-06T03:47:21.463Z,1577.00
2023-05-06T03:48:21.495Z,1555.00
2023-05-06T03:49:21.545Z,1561.00
2023-05-06T03:50:21.586Z,1556.00
2023-05-06T03:51:21.630Z,1571.00
2023-05-06T03:52:21.703Z,1563.00
2023-05-06T03:53:21.778Z,1554.00
2023-05-06T03:54:21.800Z,1557.00
2023-05-06T03:55:22.274Z,1556.00
2023-05-06T03:56:21.899Z,1553.00
2023-05-06T03:57:21.948Z,1561.00
2023-05-06T03:58:22.057Z,1556.00
2023-05-06T03:59:22.055Z,1551.00
2023-05-06T04:00:22.113Z,1562.00
2023-05-06T04:01:22.207Z,1560.00
2023-05-06T04:02:22.314Z,1551.00
2023-05-06T04:03:22.325Z,1549.00
2023-05-06T04:04:22.331Z,1550.00
2023-05-06T04:05:22.392Z,1546.00
2023-05-06T04:06:22.435Z,1538.00
2023-05-06T04:07:22.497Z,1558.00
2023-05-06T04:08:22.521Z,1540.00
2023-05-06T04:09:22.593Z,1543.00
2023-05-06T04:10:22.692Z,1541.00
2023-05-06T04:11:22.709Z,1533.00
2023-05-06T04:12:22.784Z,1551.00
2023-05-06T04:13:22.850Z,1528.00
2023-05-06T04:14:22.981Z,1535.00
2023-05-06T04:15:22.959Z,1554.00
2023-05-06T04:16:23.113Z,1537.00
2023-05-06T04:17:23.085Z,1536.00
2023-05-06T04:18:23.126Z,1545.00
2023-05-06T04:19:23.173Z,1524.00
2023-05-06T04:20:23.256Z,1524.00
2023-05-06T04:21:23.284Z,1522.00
2023-05-06T04:22:23.343Z,1517.00
2023-05-06T04:23:23.405Z,1530.00
2023-05-06T04:24:23.471Z,1523.00
2023-05-06T04:25:23.552Z,1529.00
2023-05-06T04:26:23.621Z,1530.00
2023-05-06T04:27:23.648Z,1525.00
2023-05-06T04:28:23.754Z,1516.00
2023-05-06T04:29:23.764Z,1515.00
2023-05-06T04:30:23.899Z,1521.00
2023-05-06T04:31:23.908Z,1526.00
2023-05-06T04:32:23.956Z,1531.00
2023-05-06T04:33:24.006Z,1516.00
2023-05-06T04:34:24.052Z,1520.00
2023-05-06T04:35:24.106Z,1523.00
2023-05-06T04:36:24.160Z,1528.00
2023-05-06T04:37:24.216Z,1520.00
2023-05-06T04:38:24.263Z,1519.00
2023-05-06T04:39:24.305Z,1510.00
2023-05-06T04:40:24.391Z,1511.00
2023-05-06T04:41:24.460Z,1501.00
2023-05-06T04:42:24.483Z,1500.00
2023-05-06T04:43:24.580Z,1507.00
2023-05-06T04:44:24.621Z,1518.00
2023-05-06T04:45:24.753Z,1517.00
2023-05-06T04:46:24.856Z,1502.00
2023-05-06T04:47:24.784Z,1507.00
2023-05-06T04:48:24.831Z,1509.00
2023-05-06T04:49:24.904Z,1512.00
2023-05-06T04:50:25.005Z,1505.00
2023-05-06T04:51:25.007Z,1506.00
2023-05-06T04:52:25.070Z,1506.00
2023-05-06T04:53:25.178Z,1512.00
2023-05-06T04:54:25.182Z,1502.00
2023-05-06T04:55:25.254Z,1497.00
2023-05-06T04:56:25.323Z,1494.00
2023-05-06T04:57:25.358Z,1497.00
2023-05-06T04:58:25.442Z,1492.00
2023-05-06T04:59:25.514Z,1501.00
2023-05-06T05:00:25.548Z,1499.00
2023-05-06T05:01:25.662Z,1493.00
2023-05-06T05:02:25.706Z,1495.00
2023-05-06T05:03:25.911Z,1488.00
2023-05-06T05:04:25.758Z,1479.00
2023-05-06T05:05:25.824Z,1494.00
2023-05-06T05:06:25.894Z,1494.00
2023-05-06T05:07:25.948Z,1478.00
2023-05-06T05:08:25.990Z,1480.00
2023-05-06T05:09:26.055Z,1474.00
2023-05-06T05:10:26.140Z,1488.00
2023-05-06T05:11:26.165Z,1477.00
2023-05-06T05:12:26.227Z,1490.00
2023-05-06T05:13:26.282Z,1485.00
2023-05-06T05:14:26.354Z,1482.00
2023-05-06T05:15:26.424Z,1486.00
2023-05-06T05:16:26.516Z,1480.00
2023-05-06T05:17:26.520Z,1478.00
2023-05-06T05:18:26.635Z,1466.00
2023-05-06T05:19:26.618Z,1464.00
2023-05-06T05:20:26.672Z,1464.00
2023-05-06T05:21:26.687Z,1470.00
2023-05-06T05:22:26.749Z,1471.00
2023-05-06T05:23:26.780Z,1469.00
2023-05-06T05:24:26.852Z,1466.00
2023-05-06T05:25:26.912Z,1459.00
2023-05-06T05:26:26.939Z,1455.00
2023-05-06T05:27:26.992Z,1463.00
2023-05-06T05:28:27.067Z,1456.00
2023-05-06T05:29:27.107Z,1467.00
2023-05-06T05:30:27.158Z,1449.00
2023-05-06T05:31:27.246Z,1467.00
2023-05-06T05:32:27.344Z,1456.00
2023-05-06T05:33:27.398Z,1453.00
2023-05-06T05:34:27.373Z,1456.00
2023-05-06T05:35:27.445Z,1468.00
2023-05-06T05:36:27.497Z,1468.00
2023-05-06T05:37:27.534Z,1466.00
2023-05-06T05:38:27.598Z,1444.00
2023-05-06T05:39:27.685Z,1462.00
2023-05-06T05:40:27.718Z,1456.00
2023-05-06T05:41:27.762Z,1451.00
2023-05-06T05:42:27.842Z,1471.00
2023-05-06T05:43:27.915Z,1455.00
2023-05-06T05:44:27.950Z,1454.00
2023-05-06T05:45:28.011Z,1455.00
2023-05-06T05:46:28.105Z,1441.00
2023-05-06T05:47:28.149Z,1432.00
2023-05-06T05:48:28.208Z,1442.00
2023-05-06T05:49:28.290Z,1440.00
2023-05-06T05:50:28.332Z,1440.00
2023-05-06T05:51:28.364Z,1451.00
2023-05-06T05:52:28.443Z,1449.00
2023-05-06T05:53:28.511Z,1432.00
2023-05-06T05:54:28.560Z,1434.00
2023-05-06T05:55:28.634Z,1440.00
2023-05-06T05:56:28.690Z,1437.00
2023-05-06T05:57:28.740Z,1433.00
2023-05-06T05:58:28.812Z,1445.00
2023-05-06T05:59:28.837Z,1431.00
2023-05-06T06:00:28.892Z,1422.00
2023-05-06T06:01:28.973Z,1430.00
2023-05-06T06:02:29.021Z,1416.00
2023-05-06T06:03:29.198Z,1428.00
2023-05-06T06:04:29.129Z,1436.00
2023-05-06T06:05:29.140Z,1435.00
2023-05-06T06:06:29.311Z,1416.00
2023-05-06T06:07:29.229Z,1442.00
2023-05-06T06:08:29.315Z,1435.00
2023-05-06T06:09:29.344Z,1437.00
2023-05-06T06:10:29.439Z,1427.00
2023-05-06T06:11:29.462Z,1440.00
2023-05-06T06:12:29.493Z,1427.00
2023-05-06T06:13:29.684Z,1433.00
2023-05-06T06:14:29.612Z,1447.00
2023-05-06T06:15:29.691Z,1436.00
2023-05-06T06:16:29.782Z,1445.00
2023-05-06T06:17:29.799Z,1441.00
2023-05-06T06:18:29.838Z,1436.00
2023-05-06T06:19:29.883Z,1434.00
2023-05-06T06:20:29.928Z,1434.00
2023-05-06T06:21:30.000Z,1426.00
2023-05-06T06:22:30.088Z,1438.00
2023-05-06T06:23:30.122Z,1436.00
2023-05-06T06:24:30.128Z,1435.00
2023-05-06T06:25:30.188Z,1434.00
2023-05-06T06:26:30.246Z,1443.00
2023-05-06T06:27:30.302Z,1425.00
2023-05-06T06:28:30.387Z,1432.00
2023-05-06T06:29:30.435Z,1437.00
2023-05-06T06:30:30.467Z,1430.00
2023-05-06T06:31:30.541Z,1424.00
2023-05-06T06:32:30.598Z,1424.00
2023-05-06T06:33:30.637Z,1426.00
2023-05-06T06:34:30.644Z,1424.00
2023-05-06T06:35:30.699Z,1420.00
2023-05-06T06:36:30.786Z,1421.00
2023-05-06T06:37:30.795Z,1424.00
2023-05-06T06:38:30.830Z,1420.00
2023-05-06T06:39:30.898Z,1421.00
2023-05-06T06:40:30.969Z,1415.00
2023-05-06T06:41:30.993Z,1414.00
2023-05-06T06:42:31.052Z,1417.00
2023-05-06T06:43:31.073Z,1425.00
2023-05-06T06:44:31.118Z,1423.00
2023-05-06T06:45:31.191Z,1421.00
2023-05-06T06:46:31.240Z,1422.00
2023-05-06T06:47:31.378Z,1422.00
2023-05-06T06:48:31.355Z,1423.00
2023-05-06T06:49:31.407Z,1409.00
2023-05-06T06:50:31.451Z,1418.00
2023-05-06T06:51:31.461Z,1421.00
2023-05-06T06:52:31.500Z,1406.00
2023-05-06T06:53:31.577Z,1415.00
2023-05-06T06:54:31.709Z,1414.00
2023-05-06T06:55:31.656Z,1407.00
2023-05-06T06:56:31.741Z,1408.00
2023-05-06T06:57:31.758Z,1411.00
2023-05-06T06:58:31.764Z,1404.00
2023-05-06T07:00:44.261Z,500.00
2023-05-06T07:01:44.388Z,500.00
2023-05-06T07:02:44.354Z,500.00
2023-05-06T07:03:44.300Z,500.00
2023-05-06T07:04:44.226Z,500.00
2023-05-06T07:05:44.350Z,502.00
2023-05-06T07:06:44.197Z,501.00
2023-05-06T07:07:44.195Z,500.00
2023-05-06T07:08:44.214Z,504.00
2023-05-06T07:09:44.530Z,500.00
2023-05-06T07:10:44.191Z,505.00
2023-05-06T07:11:44.154Z,507.00
2023-05-06T07:12:44.182Z,501.00
2023-05-06T07:13:44.152Z,504.00
2023-05-06T07:14:44.152Z,505.00
2023-05-06T07:15:44.174Z,506.00
2023-05-06T07:16:46.127Z,508.00
2023-05-06T07:17:44.340Z,509.00
2023-05-06T07:18:44.325Z,503.00
2023-05-06T07:19:44.288Z,507.00
2023-05-06T07:20:44.297Z,503.00
2023-05-06T07:21:44.314Z,511.00
2023-05-06T07:22:44.367Z,505.00
2023-05-06T07:23:44.370Z,511.00
2023-05-06T07:24:44.374Z,505.00
2023-05-06T07:25:44.608Z,504.00
2023-05-06T07:26:44.416Z,509.00
2023-05-06T07:27:44.457Z,509.00
2023-05-06T07:28:44.453Z,505.00
2023-05-06T07:29:44.474Z,504.00
2023-05-06T07:30:44.493Z,505.00
2023-05-06T07:31:44.503Z,511.00
2023-05-06T07:32:44.642Z,513.00
2023-05-06T07:33:44.619Z,509.00
2023-05-06T07:34:44.486Z,511.00
2023-05-06T07:35:44.483Z,513.00
2023-05-06T07:36:44.488Z,520.00
2023-05-06T07:37:44.468Z,518.00
2023-05-06T07:38:44.466Z,514.00
2023-05-06T07:39:44.504Z,517.00
2023-05-06T07:40:44.525Z,514.00
2023-05-06T07:41:44.572Z,526.00
2023-05-06T07:42:44.575Z,523.00
2023-05-06T07:43:44.710Z,527.00
2023-05-06T07:44:44.746Z,524.00
2023-05-06T07:45:44.813Z,521.00
2023-05-06T07:46:44.963Z,523.00
2023-05-06T07:47:44.957Z,528.00
2023-05-06T07:48:44.979Z,520.00
2023-05-06T07:49:45.042Z,531.00
2023-05-06T07:50:45.098Z,532.00
2023-05-06T07:51:45.250Z,529.00
2023-05-06T07:52:45.219Z,536.00
2023-05-06T07:53:45.288Z,530.00
2023-05-06T07:54:45.332Z,538.00
2023-05-06T07:55:45.396Z,539.00
2023-05-06T07:56:45.454Z,541.00
2023-05-06T07:57:45.517Z,534.00
2023-05-06T07:58:45.578Z,531.00
2023-05-06T07:59:45.691Z,533.00
2023-05-06T08:00:45.734Z,540.00
2023-05-06T08:01:45.756Z,539.00
2023-05-06T08:02:45.884Z,539.00
2023-05-06T08:03:46.019Z,537.00
2023-05-06T08:04:46.040Z,541.00
2023-05-06T08:05:45.997Z,536.00
2023-05-06T08:06:46.070Z,537.00
2023-05-06T08:07:46.115Z,537.00
2023-05-06T08:08:46.181Z,541.00
2023-05-06T08:09:46.261Z,541.00
2023-05-06T08:10:46.307Z,535.00
2023-05-06T08:11:46.359Z,544.00
2023-05-06T08:12:46.429Z,535.00
2023-05-06T08:13:46.494Z,534.00
2023-05-06T08:14:46.498Z,544.00
2023-05-06T08:15:46.574Z,535.00
2023-05-06T08:16:46.674Z,543.00
2023-05-06T08:17:46.662Z,547.00
2023-05-06T08:18:46.616Z,540.00
2023-05-06T08:19:46.674Z,542.00
2023-05-06T08:20:46.700Z,540.00
2023-05-06T08:21:46.753Z,541.00
2023-05-06T08:22:46.799Z,538.00
2023-05-06T08:23:46.817Z,543.00
2023-05-06T08:24:46.851Z,544.00
2023-05-06T08:25:46.927Z,544.00
2023-05-06T08:26:46.939Z,538.00
2023-05-06T08:27:46.971Z,543.00
2023-05-06T08:28:46.989Z,544.00
2023-05-06T08:29:47.046Z,542.00
2023-05-06T08:30:47.067Z,535.00
2023-05-06T08:31:47.260Z,535.00
2023-05-06T08:32:47.158Z,537.00
2023-05-06T08:33:47.183Z,542.00
2023-05-06T08:34:47.249Z,541.00
2023-05-06T08:35:47.255Z,544.00
2023-05-06T08:36:47.317Z,541.00
2023-05-06T08:37:47.316Z,540.00
2023-05-06T08:38:47.346Z,533.00
2023-05-06T08:39:47.380Z,539.00
2023-05-06T08:40:47.358Z,545.00
2023-05-06T08:41:47.431Z,542.00
2023-05-06T08:42:47.430Z,544.00
2023-05-06T08:43:47.446Z,542.00
2023-05-06T08:44:47.461Z,538.00
2023-05-06T08:45:47.557Z,542.00
2023-05-06T08:46:47.499Z,538.00
2023-05-06T08:47:47.519Z,543.00
2023-05-06T08:48:47.565Z,542.00
2023-05-06T08:49:47.569Z,540.00
2023-05-06T08:50:47.553Z,541.00
2023-05-06T08:51:47.572Z,540.00
2023-05-06T08:52:47.605Z,538.00
2023-05-06T08:53:47.688Z,545.00
2023-05-06T08:54:47.693Z,538.00
2023-05-06T08:55:47.735Z,542.00
2023-05-06T08:56:47.799Z,537.00
2023-05-06T08:57:47.841Z,536.00
2023-05-06T08:58:47.867Z,536.00
2023-05-06T08:59:47.904Z,541.00
2023-05-06T09:00:47.982Z,541.00
2023-05-06T09:01:48.027Z,544.00
2023-05-06T09:02:48.079Z,539.00
2023-05-06T09:03:48.112Z,542.00
2023-05-06T09:04:48.051Z,543.00
2023-05-06T09:05:48.054Z,540.00
2023-05-06T09:06:48.089Z,541.00
2023-05-06T09:07:48.091Z,543.00
2023-05-06T09:08:48.109Z,541.00
2023-05-06T09:09:48.076Z,542.00
2023-05-06T09:10:48.079Z,542.00
2023-05-06T09:11:48.076Z,546.00
2023-05-06T09:12:48.106Z,542.00
2023-05-06T09:13:48.083Z,541.00
2023-05-06T09:14:48.082Z,543.00
2023-05-06T09:15:48.093Z,538.00
2023-05-06T09:16:48.128Z,542.00
2023-05-06T09:17:48.149Z,546.00
2023-05-06T09:18:48.066Z,546.00
2023-05-06T09:19:48.085Z,541.00
2023-05-06T09:20:48.109Z,543.00
2023-05-06T09:21:48.086Z,543.00
2023-05-06T09:22:48.061Z,546.00
2023-05-06T09:23:48.066Z,542.00
2023-05-06T09:24:48.083Z,541.00
2023-05-06T09:25:48.080Z,542.00
2023-05-06T09:26:48.122Z,546.00
2023-05-06T09:27:48.101Z,545.00
2023-05-06T09:28:48.096Z,543.00
2023-05-06T09:29:48.093Z,547.00
2023-05-06T09:30:48.249Z,549.00
2023-05-06T09:31:48.092Z,545.00
2023-05-06T09:32:48.116Z,547.00
2023-05-06T09:33:48.186Z,543.00
2023-05-06T09:34:48.105Z,543.00
2023-05-06T09:35:48.147Z,547.00
2023-05-06T09:36:48.123Z,545.00
2023-05-06T09:37:48.132Z,544.00
2023-05-06T09:38:48.143Z,547.00
2023-05-06T09:39:48.152Z,542.00
2023-05-06T09:40:48.210Z,541.00
2023-05-06T09:41:48.238Z,544.00
2023-05-06T09:42:48.206Z,549.00
2023-05-06T09:43:48.199Z,547.00
2023-05-06T09:44:48.207Z,543.00
2023-05-06T09:45:48.247Z,545.00
2023-05-06T09:46:48.266Z,542.00
2023-05-06T09:47:48.279Z,546.00
2023-05-06T09:48:48.257Z,540.00
2023-05-06T09:49:48.380Z,545.00
2023-05-06T09:50:48.295Z,539.00
2023-05-06T09:51:48.305Z,539.00
2023-05-06T09:52:48.275Z,541.00
2023-05-06T09:53:48.308Z,543.00
2023-05-06T09:54:48.300Z,534.00
2023-05-06T09:55:48.298Z,534.00
2023-05-06T09:56:48.312Z,539.00
2023-05-06T09:57:48.311Z,535.00
2023-05-06T09:58:48.302Z,546.00
2023-05-06T09:59:48.308Z,546.00
2023-05-06T10:00:48.337Z,540.00
2023-05-06T10:01:48.351Z,539.00
2023-05-06T10:02:48.378Z,536.00
2023-05-06T10:03:48.413Z,537.00
2023-05-06T10:04:48.621Z,541.00
2023-05-06T10:05:48.414Z,544.00
2023-05-06T10:06:48.349Z,545.00
2023-05-06T10:07:48.343Z,541.00
2023-05-06T10:08:48.390Z,544.00
2023-05-06T10:09:48.370Z,540.00
2023-05-06T10:10:48.356Z,539.00
2023-05-06T10:11:48.386Z,541.00
2023-05-06T10:12:48.444Z,539.00
2023-05-06T10:13:48.359Z,544.00
2023-05-06T10:14:48.374Z,542.00
2023-05-06T10:15:48.411Z,537.00
2023-05-06T10:16:48.360Z,540.00
2023-05-06T10:17:48.455Z,544.00
2023-05-06T10:18:48.369Z,543.00
2023-05-06T10:19:48.349Z,541.00
2023-05-06T10:20:48.365Z,542.00
2023-05-06T10:21:48.339Z,542.00
2023-05-06T10:22:48.338Z,541.00
2023-05-06T10:23:48.398Z,539.00
2023-05-06T10:24:48.319Z,543.00
2023-05-06T10:25:48.325Z,545.00
2023-05-06T10:26:48.335Z,548.00
2023-05-06T10:27:48.336Z,547.00
2023-05-06T10:28:48.331Z,545.00
2023-05-06T10:29:48.306Z,546.00
2023-05-06T10:30:48.316Z,543.00
2023-05-06T10:31:48.357Z,541.00
2023-05-06T10:32:48.326Z,542.00
2023-05-06T10:33:48.315Z,545.00
2023-05-06T10:34:48.306Z,546.00
2023-05-06T10:35:48.323Z,541.00
2023-05-06T10:36:48.327Z,543.00
2023-05-06T10:37:48.413Z,545.00
2023-05-06T10:38:48.302Z,544.00
2023-05-06T10:39:48.277Z,549.00
2023-05-06T10:40:48.315Z,542.00
2023-05-06T10:41:48.268Z,538.00
2023-05-06T10:42:48.268Z,545.00
2023-05-06T10:43:48.290Z,543.00
2023-05-06T10:44:48.265Z,544.00
2023-05-06T10:45:48.290Z,545.00
2023-05-06T10:46:48.268Z,547.00
2023-05-06T10:47:48.308Z,543.00
2023-05-06T10:48:48.277Z,543.00
2023-05-06T10:49:48.254Z,542.00
2023-05-06T10:50:48.309Z,542.00
2023-05-06T10:51:48.240Z,547.00
2023-05-06T10:52:48.247Z,545.00
2023-05-06T10:53:48.261Z,545.00
2023-05-06T10:54:48.227Z,545.00
2023-05-06T10:55:48.226Z,547.00
2023-05-06T10:56:48.297Z,543.00
2023-05-06T10:57:48.226Z,546.00
2023-05-06T10:58:48.228Z,544.00
2023-05-06T10:59:48.241Z,546.00
2023-05-06T11:00:48.280Z,540.00
2023-05-06T11:01:48.237Z,545.00
2023-05-06T11:02:48.322Z,543.00
2023-05-06T11:03:48.276Z,546.00
2023-05-06T11:04:48.243Z,540.00
2023-05-06T11:05:48.275Z,546.00
2023-05-06T11:06:48.250Z,548.00
2023-05-06T11:07:48.250Z,545.00
2023-05-06T11:08:48.285Z,546.00
2023-05-06T11:09:48.326Z,546.00
2023-05-06T11:10:48.293Z,544.00
2023-05-06T11:11:48.277Z,543.00
2023-05-06T11:12:48.291Z,545.00
2023-05-06T11:13:50.561Z,544.00
2023-05-06T11:14:48.259Z,545.00
2023-05-06T11:15:48.265Z,547.00
2023-05-06T11:16:48.331Z,547.00
2023-05-06T11:17:48.326Z,548.00
2023-05-06T11:18:48.292Z,545.00
2023-05-06T11:19:48.267Z,543.00
2023-05-06T11:20:48.289Z,544.00
2023-05-06T11:21:50.064Z,543.00
2023-05-06T11:22:48.307Z,546.00
2023-05-06T11:23:48.359Z,546.00
2023-05-06T11:24:48.385Z,546.00
2023-05-06T11:25:48.394Z,543.00
2023-05-06T11:26:48.401Z,545.00
2023-05-06T11:27:50.717Z,546.00
2023-05-06T11:28:48.438Z,541.00
2023-05-06T11:29:48.423Z,544.00
2023-05-06T11:30:48.486Z,539.00
2023-05-06T11:31:48.508Z,540.00
2023-05-06T11:32:48.564Z,541.00
2023-05-06T11:33:48.491Z,543.00
2023-05-06T11:34:48.495Z,546.00
2023-05-06T11:35:48.526Z,540.00
2023-05-06T11:36:48.609Z,540.00
2023-05-06T11:37:48.669Z,539.00
2023-05-06T11:38:48.659Z,538.00
2023-05-06T11:39:48.708Z,540.00
2023-05-06T11:40:48.725Z,539.00
2023-05-06T11:41:48.782Z,537.00
2023-05-06T11:42:48.741Z,542.00
2023-05-06T11:43:48.783Z,543.00
2023-05-06T11:44:48.942Z,542.00
2023-05-06T11:45:48.871Z,541.00
2023-05-06T11:46:48.948Z,540.00
2023-05-06T11:47:48.944Z,539.00
2023-05-06T11:48:49.028Z,541.00
2023-05-06T11:49:48.994Z,542.00
2023-05-06T11:50:49.087Z,540.00
2023-05-06T11:51:49.123Z,542.00
2023-05-06T11:52:49.154Z,541.00
2023-05-06T11:53:49.257Z,542.00
2023-05-06T11:54:50.236Z,541.00
2023-05-06T11:55:49.320Z,533.00
2023-05-06T11:56:49.593Z,530.00
2023-05-06T11:57:49.403Z,531.00
2023-05-06T11:58:49.434Z,523.00
2023-05-06T11:59:49.481Z,527.00
2023-05-06T12:00:51.212Z,531.00
2023-05-06T12:01:49.536Z,536.00
2023-05-06T12:02:49.716Z,528.00
2023-05-06T12:03:49.726Z,532.00
2023-05-06T12:04:49.683Z,536.00
2023-05-06T12:05:49.664Z,532.00
2023-05-06T12:06:49.722Z,536.00
2023-05-06T12:07:49.767Z,539.00
2023-05-06T12:08:49.864Z,532.00
2023-05-06T12:09:49.838Z,530.00
2023-05-06T12:10:49.906Z,535.00
2023-05-06T12:11:49.916Z,529.00
2023-05-06T12:12:49.946Z,531.00
2023-05-06T12:13:50.051Z,535.00
2023-05-06T12:14:49.956Z,524.00
2023-05-06T12:15:50.032Z,534.00
2023-05-06T12:16:50.000Z,531.00